x

8452951 - Potter Cove, Prudence Island, Ri (ptcr1) Weather Station

5:54 - Thu 2nd Jul 2015 All times are EDT. -4 hours from GMT.

  • Wind
    6mph, 7mph gusts
  • Ar Temp 65°f
  • Sea Pressure 1012mb
  • 8452951 - Potter Cove, Prudence Island, Ri
  • 8452951 - Potter Cove, Prudence Island, Ri

More Historic Weather Station data

Upgrade to MSW Pro to gain access to the past 30 days of data for over 8000 Wavebouys and Weather Stations around the globe.

Join Pro

Comparision Forecast

View Surf forecast
   
Qui 07/02 5:54 6 7 mph 1012mb 65f
5:48 3 5 mph 1011.9mb 64f
5:42 3 5 mph 1011.8mb 65f
5:36 2 3 mph 1011.6mb 65f
5:30 2 3 mph 1011.5mb 65f
5:24 2 3 mph 1011.4mb 65f
5:18 2
mph
1011.3mb 65f
5:12 2 3 mph 1011.3mb 65f
5:06 2 3 mph 1011.2mb 65f
5:00 2 5 mph 1011.1mb 65f
4:54 3 5 mph 1011.1mb 65f
4:48 3 5 mph 1011.1mb 65f
4:42 3 6 mph 1011.2mb 65f
4:36 5 6 mph 1011.2mb 65f
4:30 3 7 mph 1011.1mb 65f
4:24 3 6 mph 1011.4mb 66f
4:18 3 6 mph 1011.4mb 66f
4:12 3 5 mph 1011.3mb 67f
4:06 3 6 mph 1011.3mb 67f
4:00 3 6 mph 1011.4mb 67f
3:54 3 5 mph 1011.3mb 67f
3:48 3 5 mph 1011.2mb 67f
3:42 3 5 mph 1011.1mb 67f
3:36 5 7 mph 1011.1mb 67f
3:30 5 8 mph 1011.1mb 67f
3:24 5 7 mph 1011.1mb 67f
3:18 5 7 mph 1011.1mb 67f
3:12 3 5 mph 1011.2mb 67f
3:06 5 7 mph 1011.3mb 68f
3:00 5 8 mph 1011.2mb 68f
2:54 5 8 mph 1011.1mb 68f
2:48 6 8 mph 1011.2mb 68f
2:42 6 10 mph 1011.2mb 69f
2:36 6 10 mph 1011.1mb 69f
2:30 7 10 mph 1011.1mb 69f
2:24 6 10 mph 1011.1mb 69f
2:18 6 13 mph 1011.1mb 69f
2:12 6 9 mph 1011.1mb 69f
2:06 6 9 mph 1011.1mb 69f
2:00 6 9 mph 1011mb 70f
1:54 6 11 mph 1011mb 70f
1:48 7 13 mph 1011.1mb 70f
1:42 5 8 mph 1011.1mb 70f
1:36 6 11 mph 1011.1mb 69f
1:30 5 9 mph 1011.1mb 69f
1:24 5 8 mph 1011.1mb 69f
1:18 5 8 mph 1011.1mb 70f
1:12 5 8 mph 1011.1mb 70f
1:06 5 9 mph 1011mb 70f
1:00 5 8 mph 1011.1mb 70f
12:54 5 10 mph 1011.1mb 70f
12:48 3 6 mph 1011.2mb 70f
12:42 3 7 mph 1011.2mb 70f
12:36 5 8 mph 1011.1mb 71f
12:30 3 6 mph 1011.1mb 71f
12:24 3 8 mph 1011mb 71f
12:18 5 8 mph 1010.9mb 71f
12:12 6 9 mph 1010.8mb 71f
12:06 7 10 mph 1010.7mb 72f
12:00 6 9 mph 1010.6mb 72f
Qua 07/01 11:54 7 11 mph 1010.6mb 72f
11:48 6 9 mph 1010.6mb 72f
11:42 7 11 mph 1010.6mb 72f
11:36 8 13 mph 1010.5mb 71f
11:30 5 8 mph 1010.5mb 70f
11:24 3 6 mph 1010.5mb 70f
11:18 5 8 mph 1010.4mb 71f
11:12 6 8 mph 1010.4mb 70f
11:06 6 9 mph 1010.3mb 70f
11:00 7 10 mph 1010.1mb 71f
10:54 8 11 mph 1010mb 71f
10:48 7 9 mph 1010mb 71f
10:42 8 13 mph 1010mb 71f
10:36 7 13 mph 1009.9mb 71f
10:30 7 11 mph 1009.9mb 71f
10:24 7 13 mph 1009.9mb 71f
10:18 7 10 mph 1009.8mb 71f
10:12 8 14 mph 1009.9mb 71f
10:06 7 10 mph 1009.9mb 71f
10:00 7 11 mph 1009.9mb 71f
9:54 6 11 mph 1009.9mb 70f
9:48 5 8 mph 1009.9mb 70f
9:42 3 8 mph 1009.6mb 70f
9:36 3 7 mph 1009.5mb 70f
9:30 3 7 mph 1009.3mb 70f
9:24 3 8 mph 1009.2mb 70f
9:18 5 8 mph 1009.2mb 70f
9:12 5 9 mph 1009.2mb 71f
9:06 5 9 mph 1009.1mb 71f
9:00 6 9 mph 1009.2mb 71f
8:54 6 10 mph 1009mb 71f
8:48 6 10 mph 1009mb -
8:42 6 9 mph 1008.9mb 71f
8:36 6 10 mph 1008.7mb 71f
8:30 6 9 mph 1008.7mb 71f
8:24 7 11 mph 1008.8mb 72f
8:18 6 10 mph 1008.7mb 72f
8:12 7 11 mph 1008.5mb 72f
8:06 7 11 mph 1008.5mb 71f
8:00 7 15 mph 1008.5mb 71f
7:54 8 13 mph 1008.4mb 72f
7:48 7 13 mph 1008.3mb 72f
7:42 8 14 mph 1008.3mb 73f
7:36 7 14 mph 1008.3mb 73f
7:30 7 14 mph 1008.2mb 73f
7:24 7 13 mph 1008.1mb 73f
7:18 7 11 mph 1008.1mb 73f
7:12 7 11 mph 1008.1mb 74f
7:06 6 9 mph 1008mb 74f
7:00 7 13 mph 1008mb 74f
6:54 7 13 mph 1008mb 74f
6:48 7 11 mph 1008mb 74f
6:42 7 13 mph 1008mb 75f
6:36 8 15 mph 1007.9mb 76f
6:30 8 15 mph 1007.9mb 76f
6:24 9 21 mph 1007.9mb 76f
6:18 11 17 mph 1007.9mb 76f
6:12 10 16 mph 1007.9mb 76f
6:06 11 18 mph 1007.9mb 77f
6:00 11 20 mph 1007.8mb 77f
5:54 11 17 mph 1007.8mb 77f
5:48 11 18 mph 1007.7mb 77f
5:42 9 15 mph 1007.7mb 77f
5:36 9 17 mph 1007.6mb 77f
5:30 9 14 mph 1007.6mb 77f
5:24 10 16 mph 1007.6mb 77f
5:18 10 17 mph 1007.6mb 77f
5:12 10 16 mph 1007.6mb 78f
5:06 10 21 mph 1007.6mb 78f
5:00 11 16 mph 1007.7mb 78f
4:54 11 24 mph 1007.6mb 78f
4:48 11 20 mph 1007.5mb 78f
4:42 11 20 mph 1007.5mb 77f
4:36 10 22 mph 1007.5mb 78f
4:30 11 18 mph 1007.4mb 78f
4:24 9 17 mph 1007.5mb 78f
4:18 10 21 mph 1007.5mb 78f
4:12 9 17 mph 1007.5mb 78f
4:06 8 13 mph 1007.5mb 77f
4:00 8 18 mph 1007.5mb 77f
3:54 8 14 mph 1007.4mb 78f
3:48 7 11 mph 1007.3mb 77f
3:42 6 13 mph 1007.3mb 77f
3:36 7 14 mph 1007.3mb 77f
3:30 7 11 mph 1007.3mb 77f
3:24 8 15 mph 1007.4mb 77f
3:18 7 14 mph 1007.4mb 78f
3:12 9 15 mph 1007.4mb 77f
3:06 7 13 mph 1007.4mb 77f
3:00 8 13 mph 1007.5mb 77f
2:54 9 17 mph 1007.5mb 77f
2:48 8 14 mph 1007.6mb 77f
2:42 10 17 mph 1007.6mb 77f
2:36 7 18 mph 1007.7mb 77f
2:30 7 11 mph 1007.6mb 77f
2:24 7 15 mph 1007.7mb 77f
2:18 8 15 mph 1007.6mb 77f
2:12 7 11 mph 1007.6mb 77f
2:06 8 14 mph 1007.7mb 77f
2:00 9 15 mph 1007.7mb 76f
1:54 8 15 mph 1007.7mb 77f
1:48 8 16 mph 1007.7mb 77f
1:42 9 17 mph 1007.8mb 76f
1:36 8 15 mph 1007.8mb 76f
1:30 8 16 mph 1007.8mb 77f
1:24 8 15 mph 1007.8mb 76f
1:18 7 13 mph 1007.8mb 77f
1:12 7 13 mph 1007.8mb 77f
1:06 7 13 mph 1007.8mb 76f
1:00 7 13 mph 1007.9mb 76f
12:54 7 11 mph 1008mb 76f
12:48 7 13 mph 1008.1mb 76f
12:42 8 13 mph 1008.2mb 75f
12:36 6 11 mph 1008.2mb 75f
12:30 7 11 mph 1008.2mb 75f
12:24 7 13 mph 1008.4mb 74f
12:18 7 11 mph 1008.4mb 74f
12:12 8 14 mph 1008.4mb 73f
12:06 8 16 mph 1008.4mb 73f
12:00 8 11 mph 1008.5mb 73f
11:54 6 11 mph 1008.5mb 73f
11:48 7 11 mph 1008.6mb 73f
11:42 6 10 mph 1008.8mb 72f
11:36 7 16 mph 1008.9mb 72f
11:30 8 14 mph 1009mb 71f
11:24 8 16 mph 1009mb 71f
11:18 8 16 mph 1009mb 71f
11:12 8 15 mph 1009mb 71f
11:06 7 15 mph 1009.1mb 71f
11:00 6 11 mph 1009.1mb 70f
10:54 9 18 mph 1009.2mb 71f
10:48 8 16 mph 1009.2mb 71f
10:42 7 14 mph 1009.2mb 71f
10:36 6 15 mph 1009mb 71f
10:30 6 13 mph 1009.1mb 71f
10:24 3 8 mph 1009.1mb 71f
10:18 2 8 mph 1009.1mb 70f
10:12 3 8 mph 1009.2mb 69f
10:06 2 6 mph 1009.2mb 69f
10:00 3 8 mph 1009.3mb 68f
9:54 3 10 mph 1009.3mb 68f
9:48 5 10 mph 1009.3mb 68f
9:42 5 10 mph 1009.1mb 68f
9:36 7 11 mph 1009.1mb 67f
9:30 5 10 mph 1009.3mb 67f
9:24 7 11 mph 1009.1mb 67f
9:18 5 14 mph 1008.9mb 67f
9:12 7 11 mph 1008.8mb 67f
9:06 6 14 mph 1008.9mb 67f
9:00 6 11 mph 1009.1mb 66f
8:54 7 14 mph 1009.4mb 66f
8:48 7 14 mph 1009.7mb 66f
8:42 7 14 mph 1009.5mb 66f
8:36 9 18 mph 1009.9mb 67f
8:30 7 17 mph 1010.6mb 67f
8:24 7 14 mph 1010.8mb 67f
8:18 7 13 mph 1011.1mb 67f
8:12 8 14 mph 1011mb 67f
8:06 7 11 mph 1010.7mb 67f
8:00 7 13 mph 1010.7mb 67f
7:54 5 11 mph 1011.2mb 67f
7:48 7 16 mph 1011.7mb 67f
7:42 6 14 mph 1012mb 67f
7:36 6 14 mph 1013.1mb 67f
7:30 6 13 mph 1012.5mb 67f
7:24 5 9 mph 1011.2mb 67f
7:18 7 13 mph 1011.2mb 67f
7:12 6 11 mph 1011mb 67f
7:06 8 15 mph 1010.5mb 67f
7:00 8 15 mph 1010.7mb 67f
6:54 6 14 mph 1010.7mb 67f
6:48 5 11 mph 1011mb 67f
6:42 5 13 mph 1010.9mb 67f
6:36 6 14 mph 1011mb 67f
6:30 6 16 mph 1011mb 67f
6:24 7 14 mph 1011.3mb 68f
6:18 7 13 mph 1011.3mb 69f
6:12 7 13 mph 1010.9mb 69f
6:06 6 13 mph 1010.8mb 69f
6:00 6 13 mph 1010.8mb 69f
5:54 7 16 mph 1010.8mb 69f
5:48 6 14 mph 1010.8mb 69f
5:42 6 16 mph 1010.6mb 68f
5:36 6 16 mph 1010.5mb 68f
5:30 8 15 mph 1010.5mb 68f
5:24 7 13 mph 1010.6mb 68f
5:18 6 11 mph 1010.7mb 68f
5:12 5 9 mph 1010.9mb 68f
5:06 6 14 mph 1011mb 67f
5:00 5 11 mph 1011.3mb 67f
4:54 5 10 mph 1011.2mb 67f
4:48 2 6 mph 1011.5mb 67f
4:42 3 9 mph 1011.7mb 67f
4:36 5 9 mph 1011.9mb 67f
4:30 5 9 mph 1011.9mb 68f
4:24 3 8 mph 1012.1mb 68f
4:18 5 8 mph 1012.3mb 68f
4:12 3 8 mph 1012.4mb 68f
4:06 3 8 mph 1012.3mb 68f
4:00 5 9 mph 1012.3mb 68f
3:54 2 7 mph 1012.3mb 67f
3:48 5 9 mph 1012.4mb 67f
3:42 5 8 mph 1012.6mb 67f
3:36 3 8 mph 1012.6mb 67f
3:30 5 8 mph 1012.5mb 67f
3:24 5 9 mph 1012.6mb 67f
3:18 5 9 mph 1012.5mb 67f
3:12 6 10 mph 1012.4mb 67f
3:06 5 9 mph 1012.4mb 67f
3:00 3 7 mph 1012.5mb 67f
2:54 5 9 mph 1012.5mb 67f
2:48  -  mph - 67f
2:42  -  mph - 67f
2:36  -  mph - 67f
2:30 5 8 mph 1012.7mb 67f
2:24 3 8 mph 1012.8mb 67f
2:18 5 8 mph 1013mb 67f
2:12 3 9 mph 1013.1mb 67f
2:06 3 8 mph 1013.2mb 67f
2:00 5 10 mph 1013.3mb 67f
1:54 5 10 mph 1013.4mb 67f
1:48 3 9 mph 1013.5mb 67f
1:42 3 7 mph 1013.6mb 67f
1:36 3 8 mph 1013.7mb 67f
1:30 2 6 mph 1013.7mb 67f
1:24 2 6 mph 1013.9mb 67f
1:18 3 9 mph 1014mb 67f
1:12 2 7 mph 1014mb 67f
1:06 2 7 mph 1014mb 67f
1:00 2 5 mph 1014mb 67f
12:54 3 7 mph 1014.2mb 67f
12:48 2 6 mph 1014.3mb 67f
12:42 3 7 mph 1014.3mb 67f
12:36 2 6 mph 1014.4mb 67f
12:30 3 7 mph 1014.5mb 67f
12:24 3 6 mph 1014.5mb 67f
12:18 2 6 mph 1014.5mb 67f
12:12 3 6 mph 1014.5mb 67f
12:06 3 6 mph 1014.6mb 67f
12:00 3 6 mph 1014.7mb 67f
Ter 06/30 11:54 2 7 mph 1014.8mb 67f
11:48 2 6 mph 1014.9mb 67f
11:42 2 5 mph 1015mb 67f
11:36 2 6 mph 1015mb 67f
11:30 2 8 mph 1015.1mb 67f
11:24 2 7 mph 1015mb 67f
11:18 2 5 mph 1015mb 67f
11:12 2 6 mph 1015mb 67f
11:06 2 6 mph 1015.2mb 67f
11:00 1 5 mph 1015.3mb 67f
10:54 1 7 mph 1015.3mb 67f
10:48 2 6 mph 1015.3mb 67f
10:42 3 7 mph 1015.3mb 68f
10:36 2 5 mph 1015.4mb 68f
10:30 3 8 mph 1015.4mb 68f
10:24 3 5 mph 1015.5mb 68f
10:18 2 6 mph 1015.7mb 68f
10:12 2 5 mph 1015.8mb 68f
10:06 3 7 mph 1015.9mb 68f
10:00 3 8 mph 1015.8mb 68f
9:54 2 6 mph 1015.8mb 68f
9:48 2 5 mph 1015.6mb 68f
9:42 2 7 mph 1015.6mb 68f
9:36 3 7 mph 1015.7mb 68f
9:30 2 6 mph 1015.6mb 68f
9:24 2 5 mph 1015.5mb 68f
9:18 3 7 mph 1015.4mb 68f
9:12 2 6 mph 1015.4mb 68f
9:06 3 6 mph 1015.3mb 68f
9:00 2 5 mph 1015.3mb 68f
8:54 3 7 mph 1015.2mb 68f
8:48 2 6 mph 1015.2mb 68f
8:42 2 5 mph 1015mb 69f
8:36 2 5 mph 1014.8mb 69f
8:30 1 3 mph 1014.8mb 69f
8:24 2 5 mph 1014.9mb 69f
8:18 2 3 mph 1015mb 69f
8:12 2 6 mph 1014.9mb 69f
8:06 2 3 mph 1014.8mb 69f
8:00 2 5 mph 1014.8mb 69f
7:54 3 6 mph 1014.7mb 69f
7:48 3 7 mph 1014.8mb 70f
7:42 6 13 mph 1014.8mb 70f
7:36 5 9 mph 1014.8mb 70f
7:00 3 8 mph 1014.9mb 71f
6:54 5 9 mph 1014.9mb 72f
6:48 5 10 mph 1014.9mb 72f
6:42 5 10 mph 1014.9mb 73f
6:36 5 10 mph 1014.9mb 73f
6:30 5 9 mph 1014.9mb 73f
6:24 5 9 mph 1015mb 73f
6:18 5 9 mph 1015mb 74f
6:12 5 9 mph 1015.2mb 74f
6:06 5 11 mph 1015.2mb 74f
6:00 5 8 mph 1015.1mb 74f
5:54 3 7 mph 1015.1mb 75f
5:48 5 9 mph 1015mb 75f
5:42 5 9 mph 1015.1mb 74f
5:36 6 9 mph 1015.1mb 74f
5:30 3 7 mph 1015.2mb 75f
5:24 7 10 mph 1015.2mb 74f
5:18 6 13 mph 1015.3mb 75f
5:12 5 10 mph 1015.3mb 75f
5:06 6 10 mph 1015.3mb 75f
5:00 7 11 mph 1015.2mb 75f
4:54 3 9 mph 1015.3mb 76f
4:48 6 13 mph 1015.4mb 75f
4:42 6 10 mph 1015.4mb 75f
4:36 5 9 mph 1015.5mb 75f
4:30 6 11 mph 1015.5mb 76f
4:24 5 10 mph 1015.5mb 76f
4:18 7 11 mph 1015.5mb 76f
4:12 3 8 mph 1015.4mb 76f
4:06 5 10 mph 1015.4mb 76f
4:00 6 13 mph 1015.4mb 76f
3:54 6 11 mph 1015.6mb 75f
3:48 6 13 mph 1015.6mb 76f
3:42 7 15 mph 1015.6mb 76f
3:36 6 14 mph 1015.6mb 76f
3:30 7 15 mph 1015.7mb 76f
3:24 6 14 mph 1015.7mb 77f
3:18 7 14 mph 1015.7mb 77f
3:12 7 13 mph 1015.9mb 77f
3:06 7 14 mph 1016mb 77f
3:00 6 10 mph 1015.9mb 77f
2:54 7 11 mph 1016mb 77f
2:48 5 13 mph 1016.1mb 77f
2:42 6 10 mph 1016mb 78f
2:36 5 9 mph 1016mb 78f
2:30 6 14 mph 1016.1mb 78f
2:24 6 10 mph 1016mb 78f
2:18 6 13 mph 1016mb 78f
2:12 6 13 mph 1016.1mb 76f
2:06 7 16 mph 1016.1mb 76f
2:00 7 16 mph 1016.1mb 75f
1:54 8 15 mph 1016.1mb 75f
1:48 7 13 mph 1016.1mb 75f
1:42 8 14 mph 1016mb 75f
1:36 9 17 mph 1016mb 75f
1:30 6 15 mph 1015.9mb 76f
1:24 6 15 mph 1015.9mb 76f
1:18 6 13 mph 1015.9mb 76f
1:12 6 14 mph 1015.9mb 76f
1:06 7 13 mph 1015.9mb 76f
1:00 7 14 mph 1015.9mb 76f
12:54 7 14 mph 1016mb 76f
12:48 6 14 mph 1016mb 76f
12:42 6 15 mph 1016mb 76f
12:36 7 15 mph 1015.9mb 76f
12:30 6 14 mph 1016mb 76f
12:24 7 14 mph 1016mb 76f
12:18 6 13 mph 1016.1mb 76f
12:12 7 11 mph 1016.2mb 76f
12:06 7 13 mph 1016.2mb 76f
12:00 6 13 mph 1016.2mb 76f
11:54 6 11 mph 1016.2mb 76f
11:48 6 13 mph 1016.2mb 76f
11:42 7 13 mph 1016.2mb 76f
11:36 5 8 mph 1016.2mb 76f
11:30 5 8 mph 1016.2mb 77f
11:24 6 9 mph 1016.2mb 76f
11:18 5 10 mph 1016.3mb 76f
11:12 5 10 mph 1016.3mb 76f
11:06 5 9 mph 1016.4mb 76f
11:00 5 10 mph 1016.4mb 76f
10:54 3 8 mph 1016.3mb 75f
10:48 5 8 mph 1016.4mb 75f
10:42 3 7 mph 1016.4mb 74f
10:36 5 8 mph 1016.4mb 73f
10:30 5 8 mph 1016.4mb 73f
10:24 3 6 mph 1016.3mb 74f
10:18 2 6 mph 1016.4mb 74f
10:12 2 5 mph 1016.4mb 73f
10:06 3 7 mph 1016.4mb 73f
10:00 2 6 mph 1016.4mb 73f
9:54 2 6 mph 1016.4mb 73f
9:48 1 6 mph 1016.5mb 72f
9:42 2 5 mph 1016.5mb 71f
9:36 2 5 mph 1016.4mb 71f
9:30 2 5 mph 1016.4mb 71f
9:24 3 7 mph 1016.4mb 70f
9:18 2 5 mph 1016.5mb 70f
9:12 2 5 mph 1016.6mb 70f
9:06 2 5 mph 1016.7mb 69f
9:00 2 6 mph 1016.8mb 69f
8:54 3 6 mph 1016.8mb 69f
8:48 2 5 mph 1016.7mb 69f
8:42 2 3 mph 1016.8mb 69f
8:36 2 3 mph 1016.8mb 68f
8:30 3 5 mph 1016.8mb 68f
8:24 1 5 mph 1016.9mb 69f
8:18  -  3 mph 1016.9mb 69f
8:12  -  3 mph 1016.9mb 69f
8:06 3 6 mph 1016.8mb 69f
8:00 2 3 mph 1016.8mb 69f
7:54 2 3 mph 1016.8mb 67f
7:48 3 5 mph 1016.7mb 67f
7:42 2 5 mph 1016.6mb 67f
7:36 2 5 mph 1016.6mb 67f
7:30 2 5 mph 1016.5mb 67f
7:24 2 5 mph 1016.5mb 67f
7:18 2 3 mph 1016.4mb 67f
7:12 2 5 mph 1016.3mb 66f
7:06 2 3 mph 1016.2mb 66f
7:00 1 3 mph 1016.2mb 66f
6:54 2 3 mph 1016.1mb 66f
6:48  -  3 mph 1016.1mb 66f
6:42  -  2 mph 1016mb 65f
6:36  -  1 mph 1016mb 65f
6:30  -  1 mph 1016mb 65f
6:24  -  2 mph 1015.9mb 65f
6:18  -  1 mph 1015.8mb 65f
6:12  -  1 mph 1015.7mb 65f
6:06  -  1 mph 1015.6mb 65f
6:00  -  1 mph 1015.6mb 65f
5:54  -  1 mph 1015.7mb 64f
5:48  -  1 mph 1015.6mb 64f
5:42 2 5 mph 1015.7mb 64f
5:36 2 5 mph 1015.7mb 64f
5:30 3 6 mph 1015.8mb 64f
5:24 3 6 mph 1015.6mb 64f
5:18 3 5 mph 1015.6mb 64f
5:12 3 5 mph 1015.6mb 64f
5:06 2 5 mph 1015.5mb 64f
5:00 2 5 mph 1015.5mb 64f
4:54 1 2 mph 1015.5mb 64f
4:48 1 3 mph 1015.5mb 64f
4:42 2 5 mph 1015.5mb 64f
4:36 2 5 mph 1015.5mb 64f
4:30 2 5 mph 1015.5mb 64f
4:24 2 5 mph 1015.6mb 64f
4:18 3 6 mph 1015.5mb 64f
4:12 3 6 mph 1015.5mb 64f
4:06 5 7 mph 1015.6mb 64f
4:00 3 7 mph 1015.6mb 64f
3:54 2 5 mph 1015.5mb 64f
3:48 3 6 mph 1015.5mb 64f
3:42 2 5 mph 1015.6mb 63f
3:36 2 6 mph 1015.5mb 63f
3:30 2 5 mph 1015.5mb 63f
3:24 3 6 mph 1015.5mb 63f
3:18 3 6 mph 1015.5mb 63f
3:12 3 7 mph 1015.5mb 62f
3:06 2 3 mph 1015.4mb 62f
3:00 3 5 mph 1015.3mb 63f
2:54 5 6 mph 1015.2mb 63f
2:48 3 6 mph - -
2:42 3 5 mph - -
2:36 3 6 mph - -
2:30 3 5 mph 1015.2mb 63f
2:24 2 3 mph 1015.2mb 63f
2:18 2
mph
1015.2mb 63f
2:12 1 2 mph 1015.2mb 63f
2:06 1 2 mph 1015.3mb 63f
2:00 1 2 mph 1015.2mb 63f
1:54 2 3 mph 1015.2mb 63f
1:48 1 3 mph 1015.2mb 62f
1:42 2 3 mph 1015.2mb 62f
1:36 2 3 mph 1015.1mb 63f
1:30 2 3 mph 1015.1mb 63f
1:24 2 3 mph 1015.1mb 63f
1:18 2 3 mph 1015.1mb 63f
1:12 1 3 mph 1015.1mb 64f
1:06 2 5 mph 1015.1mb 64f
1:00 2 5 mph 1015.2mb 64f
12:54 2 3 mph 1015.1mb 64f
12:48 2 6 mph 1015.1mb 64f
12:42 2 5 mph 1015mb 64f
12:36 2 5 mph 1015mb 64f
12:30 5 7 mph 1015mb 65f
12:24 5 7 mph 1015mb 65f
12:18 5 7 mph 1015mb 64f
12:12 5 7 mph 1015mb 65f
12:06 5 7 mph 1015mb 65f
12:00 6 9 mph 1014.9mb 65f
Seg 06/29 11:54 7 10 mph 1014.9mb 65f
11:48 7 11 mph 1014.8mb 65f
11:42 6 11 mph 1014.9mb 65f
11:36 6 9 mph 1014.8mb 65f
11:30 6 9 mph 1014.9mb 65f
11:24 6 9 mph 1014.8mb 65f
11:18 5 9 mph 1014.7mb 65f
11:12 6 11 mph 1014.6mb 66f
11:06 6 9 mph 1014.6mb 66f
11:00 5 8 mph 1014.6mb 66f
10:54 6 11 mph 1014.6mb 66f
10:48 5 9 mph 1014.6mb 66f
10:42 5 10 mph 1014.5mb 66f
10:36 5 8 mph 1014.5mb 66f
10:30 6 8 mph 1014.5mb 66f
10:24 6 10 mph 1014.5mb 66f
10:18 6 11 mph 1014.5mb 66f
10:12 7 10 mph 1014.5mb 66f
10:06 6 10 mph 1014.4mb 66f
10:00 6 10 mph 1014.4mb 66f
9:54 7 10 mph 1014.4mb 67f
9:48 6 11 mph 1014.3mb 67f
9:42 6 13 mph 1014.2mb 67f
9:36 5 10 mph 1014.1mb 67f
9:30 6 10 mph 1014mb 67f
9:24 6 9 mph 1014mb 67f
9:18 7 10 mph 1013.8mb 67f
9:12 7 13 mph 1013.7mb 67f
9:06 7 13 mph 1013.7mb 68f
9:00 7 11 mph 1013.6mb 68f
8:54 7 11 mph 1013.5mb 68f
8:48 8 13 mph 1013.5mb 68f
8:42 8 13 mph 1013.4mb 68f
8:36 8 13 mph 1013.3mb 68f
8:30 7 10 mph 1013.3mb 68f
8:24 7 13 mph 1013.3mb 69f
8:18 7 10 mph 1013.3mb 69f
8:12 8 13 mph 1013.4mb 69f
8:06 7 13 mph 1013.4mb 69f
8:00 7 13 mph 1013.3mb 69f
7:54 7 13 mph 1013.3mb 69f
7:48 7 13 mph 1013.2mb 69f
7:42 7 10 mph 1013.2mb 69f
7:36 6 10 mph 1013.2mb 69f
7:30 7 11 mph 1013.2mb 70f
7:24 6 11 mph 1013.1mb 70f
7:18 6 11 mph 1013mb 70f
7:12 5 8 mph 1013mb 70f
7:06 5 10 mph 1013mb 71f
7:00 5 9 mph 1012.9mb 72f
6:54 7 10 mph 1012.9mb 73f
6:48 8 13 mph 1012.7mb 73f
6:42 7 10 mph 1012.6mb 73f
6:36 7 13 mph 1012.6mb 73f
6:30 8 13 mph 1012.6mb 73f
6:24 8 13 mph 1012.6mb 73f
6:18 8 13 mph 1012.5mb 73f
6:12 8 11 mph 1012.4mb 73f
6:06 7 13 mph 1012.3mb 72f
6:00 8 15 mph 1012.3mb 72f
5:54 8 11 mph 1012.3mb 72f
5:48 8 11 mph 1012.2mb 72f
5:42 9 13 mph 1012.2mb 73f
5:36 6 10 mph 1012.2mb 73f
5:30 6 10 mph 1012.1mb 72f
5:24 7 10 mph 1012.1mb 73f
5:18 7 10 mph 1012.1mb 73f
5:12 7 11 mph 1012.1mb 74f
5:06 5 9 mph 1012mb 74f
5:00 6 10 mph 1012mb 73f
4:54 3 6 mph 1012mb 73f
4:48 5 6 mph 1011.9mb 73f
4:42 5 9 mph 1011.9mb 73f
4:36 5 9 mph 1011.9mb 73f
4:30 6 9 mph 1011.7mb 74f
4:24 8 11 mph 1011.7mb 74f
4:18 7 13 mph 1011.7mb 73f
4:12 8 13 mph 1011.8mb 72f
4:06 9 14 mph 1011.8mb 72f
4:00 7 11 mph 1011.8mb 71f
3:54 5 8 mph 1011.8mb 71f
3:48 6 10 mph 1011.8mb 72f
3:42 6 10 mph 1011.8mb 72f
3:36 5 11 mph 1011.7mb 73f
3:30 5 10 mph 1011.8mb 73f
3:24 6 9 mph 1011.8mb 73f
3:18 5 9 mph 1011.8mb 73f
3:12 7 13 mph 1011.8mb 73f
3:06 8 14 mph 1011.7mb 71f
3:00 6 10 mph 1011.7mb 71f
2:54 6 11 mph 1011.7mb 71f
2:48 6 14 mph 1011.7mb 72f
2:42 6 9 mph 1011.6mb 72f
2:36 5 8 mph 1011.5mb 71f
2:30 5 8 mph 1011.6mb 70f
2:24 6 10 mph 1011.6mb 69f
2:18 6 11 mph 1011.7mb 69f
2:12 5 9 mph 1011.7mb 69f
2:06 5 9 mph 1011.7mb 69f
2:00 3 8 mph 1011.7mb 70f
1:54 2 6 mph 1011.6mb 70f
1:48 1 5 mph 1011.7mb 70f
1:42 2 5 mph 1011.6mb 70f
1:36 2 5 mph 1011.6mb 71f
1:30 3 8 mph 1011.6mb 70f
1:24 3 8 mph 1011.6mb 70f
1:18 5 8 mph 1011.6mb 69f
1:12 3 8 mph 1011.6mb 69f
1:06 5 8 mph 1011.6mb 68f
1:00 6 10 mph 1011.7mb 68f
12:54 3 7 mph 1011.7mb 69f
12:48 2 8 mph 1011.7mb 69f
12:42 5 8 mph 1011.6mb 69f
12:36 3 7 mph 1011.6mb 70f
12:30 5 11 mph 1011.5mb 70f
12:24 3 8 mph 1011.5mb 70f
12:18 3 7 mph 1011.6mb 68f
12:12 6 10 mph 1011.8mb 67f
12:06 7 13 mph 1011.8mb 67f
12:00 7 13 mph 1011.7mb 67f
11:54 7 11 mph 1011.7mb 67f
11:48 6 11 mph 1011.7mb 66f
11:42 6 11 mph 1011.7mb 66f
11:36 5 13 mph 1011.6mb 67f
11:30 3 7 mph 1011.6mb 67f
11:24 5 10 mph 1011.4mb 67f
11:18 6 10 mph 1011.4mb 68f
11:12 5 8 mph 1011.4mb 67f
11:06 3 7 mph 1011.4mb 66f
11:00 3 7 mph 1011.3mb 66f
10:54 3 7 mph 1011.2mb 66f
10:48 2 6 mph 1011.2mb 67f
10:42 3 5 mph 1011.1mb 66f
10:36 3 6 mph 1011.1mb 67f
10:30 2 5 mph 1011mb 66f
10:24 1 2 mph 1011mb 66f
10:18 1 3 mph 1011.1mb 65f
10:12 3 6 mph 1011.1mb 64f
10:06 5 6 mph 1011mb 64f
10:00 2 5 mph 1011mb 64f
9:54 2 5 mph 1011.1mb 64f
9:48 2 6 mph 1011mb 63f
9:42 3 5 mph 1011.1mb 63f
9:36 3 6 mph 1011.1mb 63f
9:30 2 3 mph 1011.2mb 63f
9:24 2 5 mph 1011.2mb 62f
9:18 2 5 mph 1011.3mb 63f
9:12 1 3 mph 1011.2mb 62f
9:06 2 3 mph 1011.2mb 62f
9:00 5 6 mph 1011.2mb 61f
8:54 3 8 mph 1011.1mb 62f
8:48 2 5 mph 1011mb 61f
8:42 1 3 mph 1010.8mb 62f
8:36 1 3 mph 1010.8mb 62f
8:30 2 3 mph 1010.9mb 61f
8:24  -  3 mph 1010.8mb 60f
8:18 1 3 mph 1010.8mb 60f
8:12 2 3 mph 1010.8mb 59f
8:06 1 3 mph 1010.6mb 60f
8:00  -  2 mph 1010.6mb 59f
7:54  -  1 mph 1010.6mb 59f
7:48  -  2 mph 1010.5mb 59f
7:42  -  2 mph 1010.5mb 59f
7:36  -  2 mph 1010.5mb 59f
7:30  -  1 mph 1010.6mb 59f
7:24  -  2 mph 1010.6mb 58f
7:18 1 2 mph 1010.6mb 58f
7:12  -  2 mph 1010.6mb 58f
7:06  -  2 mph 1010.6mb 58f
7:00  -  2 mph 1010.6mb 58f
6:54  -  2 mph 1010.6mb 57f
6:48  -  1 mph 1010.5mb 57f
6:42 1 3 mph 1010.5mb 57f
6:36 1 3 mph 1010.5mb 57f
6:30  -  1 mph 1010.5mb 57f
6:24 2 3 mph 1010.5mb 56f
6:18 1 3 mph 1010.5mb 56f
6:12 1 3 mph 1010.4mb 56f
6:06 3 6 mph 1010.5mb 56f
6:00 2 3 mph 1010.4mb 56f
5:54 2 5 mph 1010.4mb 56f
5:48 2 5 mph 1010.3mb 56f
5:42 3 5 mph 1010.2mb 56f
5:36  -  3 mph 1010.1mb 56f
5:30 1 3 mph 1010.1mb 56f
5:24 1 2 mph 1010.1mb 56f
5:18  -  2 mph 1010.2mb 56f
5:12 2 3 mph 1010.1mb 56f
5:06 1 3 mph 1010.1mb 56f
5:00  -  2 mph 1010mb 56f
4:54  -  1 mph 1010mb 56f
4:48  -  1 mph 1009.8mb 56f
4:42  -  1 mph 1009.8mb 56f
4:36  -  2 mph 1009.6mb 56f
4:30  -  mph 1009.5mb 56f
4:24 2 5 mph 1009.4mb 56f
4:18  -  2 mph 1009.4mb 56f
4:12 2 3 mph 1009.3mb 56f
4:06 1 3 mph 1009.4mb 55f
4:00 2 5 mph 1009.4mb 55f
3:54 1 2 mph 1009.3mb 55f
3:48 1 2 mph 1009.2mb 55f
3:42 2 5 mph 1009.1mb 55f
3:36 3 5 mph 1009.2mb 56f
3:30 1 2 mph 1009.2mb 55f
3:24 2 6 mph 1009.1mb 55f
3:18 3 5 mph 1009mb 55f
3:12 3 6 mph 1009.1mb 55f
3:06 3 6 mph 1009.1mb 55f
3:00 3 7 mph 1009mb 55f
2:54 5 8 mph 1009.1mb 55f
2:48 5 8 mph - 55f
2:42 5 7 mph - 55f
2:36 5 8 mph - 55f
2:30 5 9 mph - 55f
2:24 6 8 mph - 55f
2:18 6 8 mph - -
2:12 6 9 mph - -
2:06 5 8 mph - -
2:00 5 7 mph 1008.9mb 55f
1:54 7 8 mph 1008.9mb 55f
1:48 5 9 mph 1009mb 56f
1:42 5 8 mph 1009mb 56f
1:36 6 7 mph 1009mb 55f
1:30 5 7 mph 1009mb 56f
1:24 3 8 mph 1008.9mb 56f
1:18 6 9 mph 1008.9mb 56f
1:12 7 10 mph 1008.9mb 56f
1:06 7 10 mph 1008.9mb 56f
1:00 6 10 mph 1009mb 56f
12:54 6 8 mph 1009.1mb 56f
12:48 5 7 mph 1009mb 56f
12:42 3 6 mph 1009mb 56f
12:36 3 6 mph 1009mb 55f
12:30 3 7 mph 1008.9mb 55f
12:24 3 6 mph 1008.9mb 55f
12:18 3 5 mph 1008.9mb 55f
12:12 3 6 mph 1008.9mb 56f
12:06 5 6 mph 1009.1mb 56f
12:00 5 8 mph 1009.1mb 56f
Dom 06/28 11:54 5 9 mph 1009mb 56f
11:48 7 10 mph 1009mb 56f
11:42 6 10 mph 1009mb 56f
11:36 5 8 mph 1009mb 56f
11:30 3 6 mph 1009.1mb 56f
11:24 7 10 mph 1009mb 56f
11:18 7 9 mph 1009mb 56f
11:12 7 10 mph 1009mb 56f
11:06 6 10 mph 1009mb 56f
11:00 6 10 mph 1009mb 56f
10:54 6 8 mph 1009mb 56f
10:48 6 10 mph 1009mb 56f
10:42 7 11 mph 1009mb 56f
10:36 6 10 mph 1009.1mb 56f
10:30 6 10 mph 1009.1mb 56f
10:24 6 9 mph 1009.1mb 57f
10:18 7 13 mph 1009.1mb 57f
10:12 7 11 mph 1009.1mb 57f
10:06 6 11 mph 1009.1mb 57f
10:00 6 10 mph 1009mb 57f
9:54 6 10 mph 1009.1mb 57f
9:48 5 8 mph 1009.1mb 57f
9:42 7 13 mph 1009.1mb 57f
9:36 7 11 mph 1009mb 57f
9:30 6 11 mph 1008.9mb 57f
9:24 6 10 mph 1008.8mb 57f
9:18 6 10 mph 1008.7mb 57f
9:12 6 9 mph 1008.6mb 57f
9:06 5 9 mph 1008.5mb 57f
9:00 5 9 mph 1008.5mb 57f
8:54 7 13 mph 1008.2mb 57f
8:48 7 10 mph 1008.1mb 58f
8:42 6 13 mph 1008.1mb 58f
8:36 5 11 mph 1007.9mb 58f
8:30 6 10 mph 1007.9mb 58f
8:24 3 9 mph 1007.9mb 58f
8:18 5 10 mph 1007.9mb 58f
8:12 5 9 mph 1007.9mb 58f
8:06 3 6 mph 1007.8mb 59f
8:00 2 5 mph 1007.7mb 59f
7:54 5 8 mph 1007.5mb 59f
7:48 3 8 mph 1007.5mb 59f
7:42 5 8 mph 1007.3mb 59f
7:36 5 11 mph 1007.3mb 59f
7:30 5 8 mph 1007.2mb 59f
7:24 5 8 mph 1007.1mb 60f
7:18 5 8 mph 1007mb 60f
7:12 6 11 mph 1006.8mb 60f
7:06 7 10 mph 1006.7mb 60f
7:00 6 11 mph 1006.6mb 60f
6:54 6 10 mph 1006.6mb 60f
6:48 7 11 mph 1006.4mb 60f
6:42 8 11 mph 1006.2mb 60f
6:36 7 10 mph 1006.2mb 61f
6:30 6 9 mph 1006.1mb 61f
6:24 7 11 mph 1005.9mb 61f
6:18 7 11 mph 1005.8mb 61f
6:12 6 10 mph 1005.8mb 61f
6:06 8 11 mph 1005.6mb 61f
6:00 9 14 mph 1005.5mb 61f
5:54 7 11 mph 1005.5mb 61f
5:48 8 11 mph 1005.4mb 61f
5:42 9 13 mph 1005.3mb 62f
5:36 8 11 mph 1005.3mb 62f
5:30 8 13 mph 1005.4mb 62f
5:24 7 11 mph 1005.5mb 62f
5:18 8 13 mph 1005.5mb 62f
5:12 8 13 mph 1005.4mb 62f
5:06 7 10 mph 1005.3mb 62f
5:00 9 14 mph 1005.3mb 63f
4:54 8 13 mph 1005.3mb 62f
4:48 7 11 mph 1005.3mb 63f
4:42 8 14 mph 1005.2mb 63f
4:36 9 16 mph 1005.1mb 63f
4:30 9 14 mph 1005mb 64f
4:24 10 15 mph 1005mb 64f
4:18 10 14 mph 1005mb 64f
4:12 10 14 mph 1005mb 64f
4:06 10 15 mph 1004.9mb 64f
4:00 8 14 mph 1005.1mb 63f
3:54 8 13 mph 1005.1mb 63f
3:48 8 13 mph 1005.1mb 64f
3:42 8 14 mph 1005mb 64f
3:36 9 13 mph 1004.9mb 64f
3:30 8 14 mph 1005mb 64f
3:24 8 13 mph 1004.8mb 64f
3:18 9 14 mph 1004.8mb 64f
3:12 8 11 mph 1004.9mb 64f
3:06 10 15 mph 1004.7mb 64f
3:00 7 11 mph 1004.7mb 64f
2:54 10 17 mph 1004.8mb 65f
2:48 10 15 mph 1004.8mb 65f
2:42 9 17 mph 1004.7mb 64f
2:36 11 16 mph 1004.6mb 64f
2:30 10 16 mph 1004.6mb 64f
2:24 10 16 mph 1004.6mb 64f
2:18 10 16 mph 1004.6mb 64f
2:12 9 14 mph 1004.6mb 65f
2:06 11 17 mph 1004.6mb 64f
2:00 9 15 mph 1004.6mb 64f
1:54 9 15 mph 1004.4mb 64f
1:48 10 17 mph 1004.4mb 64f
1:42 11 16 mph 1004.2mb 65f
1:36 10 16 mph 1004.3mb 65f
1:30 10 15 mph 1004.4mb 64f
1:24 8 15 mph 1004.4mb 64f
1:18 10 16 mph 1004.6mb 65f
1:12 10 16 mph 1004.5mb 65f
1:06 9 15 mph 1004.5mb 65f
1:00 10 16 mph 1004.6mb 65f
12:54 11 18 mph 1004.7mb 65f
12:48 10 15 mph 1004.6mb 65f
12:42 10 15 mph 1004.6mb 65f
12:36 10 15 mph 1004.6mb 65f
12:30 11 15 mph 1004.7mb 65f
12:24 9 14 mph 1004.7mb 65f
12:18 10 16 mph 1004.8mb 65f
12:12 10 15 mph 1004.8mb 65f
12:06 9 14 mph 1004.8mb 65f
12:00 10 14 mph 1004.8mb 65f
11:54 10 15 mph 1004.8mb 65f
11:48 10 16 mph 1004.6mb 65f
11:42 10 16 mph 1004.5mb 65f
11:36 10 14 mph 1004.5mb 65f
11:30 11 15 mph 1004.5mb 65f
11:24 11 15 mph 1004.7mb 65f
11:18 11 16 mph 1004.7mb 65f
11:12 10 16 mph 1004.8mb 65f
11:06 10 15 mph 1004.9mb 65f
11:00 10 15 mph 1004.8mb 65f
10:54 9 13 mph 1005mb 65f
10:48 10 15 mph 1004.8mb 65f
10:42 10 14 mph 1004.9mb 65f
10:36 9 14 mph 1004.9mb 65f